Time;durP1;ratioP1;P1;durP2;ratioP2;P2;SDS_P1;SDS_P2;PMS_P1;PMS_P2;Temp;Humidity;BMP_temperature;BMP_pressure;BME280_temperature;BME280_humidity;BME280_pressure;Samples;Min_cycle;Max_cycle;Signal;HPM_P1;HPM_P2
2023/10/07 00:02:12;;;;;;;13.43;7.47;;;;;;;-143.21;62.48;72978.53;5138199;27;20206;-77
2023/10/07 00:04:39;;;;;;;10.93;6.50;;;;;;;-143.21;62.68;72986.47;5134870;27;20203;-77
2023/10/07 00:07:10;;;;;;;15.60;7.00;;;;;;;-143.21;62.94;72994.41;5138364;27;20206;-77
2023/10/07 00:09:41;;;;;;;15.73;6.47;;;;;;;-143.21;62.96;72994.41;5133780;27;20225;-77
2023/10/07 00:12:13;;;;;;;13.03;7.50;;;;;;;-143.21;62.86;72992.41;5135099;27;20247;-77
2023/10/07 00:14:40;;;;;;;15.60;7.27;;;;;;;-143.21;63.31;72998.38;5133853;27;20263;-77
2023/10/07 00:17:12;;;;;;;10.10;6.00;;;;;;;-143.21;63.12;73002.34;5136984;27;20207;-77
2023/10/07 00:19:39;;;;;;;12.47;6.23;;;;;;;-143.21;63.11;73002.34;5135738;27;20198;-77
2023/10/07 00:22:08;;;;;;;11.30;6.20;;;;;;;-143.21;63.57;73010.28;5143063;27;20195;-77
2023/10/07 00:24:43;;;;;;;13.40;6.17;;;;;;;-143.21;63.74;73010.28;5147346;27;20660;-77
2023/10/07 00:27:26;;;;;;;12.63;5.57;;;;;;;-143.21;63.55;73008.28;5143487;27;20289;-76
2023/10/07 00:29:55;;;;;;;13.20;5.67;;;;;;;-143.21;64.01;73012.25;5130517;27;20203;-77
2023/10/07 00:32:28;;;;;;;12.23;6.27;;;;;;;-143.21;64.17;73014.25;5137467;27;20230;-77
2023/10/07 00:34:55;;;;;;;10.10;5.90;;;;;;;-143.21;64.05;73018.22;5126699;27;20195;-78
2023/10/07 00:37:24;;;;;;;13.27;6.40;;;;;;;-143.21;64.09;73006.31;5133532;27;20226;-77
2023/10/07 00:39:52;;;;;;;14.50;6.57;;;;;;;-143.21;64.36;73010.28;5126745;27;20235;-76
2023/10/07 00:42:22;;;;;;;11.17;6.30;;;;;;;-143.21;64.42;73014.25;5140261;27;20618;-76
2023/10/07 00:44:52;;;;;;;13.43;6.17;;;;;;;-143.21;64.54;73016.22;5136773;27;20202;-78
2023/10/07 00:47:20;;;;;;;12.77;6.23;;;;;;;-143.21;64.62;73016.22;5134125;27;20785;-78
2023/10/07 00:49:54;;;;;;;12.03;6.10;;;;;;;-143.21;64.67;73018.22;5137423;27;20199;-78
2023/10/07 00:52:28;;;;;;;13.97;6.70;;;;;;;-143.21;64.83;73026.16;5136631;27;20705;-77
2023/10/07 00:55:08;;;;;;;11.70;6.77;;;;;;;-143.21;65.06;73030.09;5132310;27;20202;-77
2023/10/07 00:57:37;;;;;;;13.50;6.30;;;;;;;-143.21;65.12;73028.13;5135579;27;20665;-77
2023/10/07 01:00:30;;;;;;;13.50;6.13;;;;;;;-143.21;65.14;73032.09;5137167;27;20199;-77
2023/10/07 01:03:12;;;;;;;11.03;6.43;;;;;;;-143.21;65.46;73030.09;5133373;27;20202;-78
2023/10/07 01:05:44;;;;;;;10.93;6.10;;;;;;;-143.21;65.51;73044.00;5136431;27;20251;-78
2023/10/07 01:08:12;;;;;;;11.67;6.47;;;;;;;-143.21;65.54;73047.97;5132109;27;20267;-78
2023/10/07 01:10:46;;;;;;;10.53;6.00;;;;;;;-143.21;65.78;73053.91;5141716;27;20219;-78
2023/10/07 01:13:29;;;;;;;14.77;6.33;;;;;;;-143.21;66.16;73063.84;5130261;27;20202;-78
2023/10/07 01:15:56;;;;;;;12.07;6.10;;;;;;;-143.21;66.00;73059.88;5137858;27;20198;-78
2023/10/07 01:18:23;;;;;;;10.63;6.80;;;;;;;-143.21;66.19;73067.78;5131205;27;20199;-79
2023/10/07 01:21:02;;;;;;;14.00;8.67;;;;;;;-143.21;66.44;73073.75;5132905;27;20223;-78
2023/10/07 01:23:33;;;;;;;16.13;8.90;;;;;;;-143.21;66.38;73077.72;5132231;27;20205;-78
2023/10/07 01:26:02;;;;;;;16.47;10.17;;;;;;;-143.21;66.57;73091.59;5147487;27;20270;-78
2023/10/07 01:28:32;;;;;;;20.13;12.10;;;;;;;-143.21;67.05;73091.59;5133319;27;20283;-78
2023/10/07 01:31:09;;;;;;;25.27;13.47;;;;;;;-143.21;66.51;73081.69;5139092;27;20707;-78
2023/10/07 01:33:39;;;;;;;19.27;10.90;;;;;;;-143.21;66.83;73097.56;5130058;27;20206;-78
2023/10/07 01:36:14;;;;;;;18.00;10.60;;;;;;;-143.21;66.93;73093.59;5134410;27;20230;-78
2023/10/07 01:38:44;;;;;;;19.40;10.90;;;;;;;-143.21;67.09;73103.50;5133867;27;20254;-78
2023/10/07 01:41:18;;;;;;;17.27;9.97;;;;;;;-143.21;66.93;73109.44;5132017;27;20200;-79
2023/10/07 01:43:56;;;;;;;14.63;8.43;;;;;;;-143.21;67.24;73115.41;5137826;27;20234;-79
2023/10/07 01:46:27;;;;;;;13.10;7.93;;;;;;;-143.21;67.03;73109.44;5134115;27;20218;-78
2023/10/07 01:48:57;;;;;;;10.90;7.73;;;;;;;-143.21;67.05;73109.44;5126448;27;20199;-79
2023/10/07 01:51:26;;;;;;;12.70;7.40;;;;;;;-143.21;66.75;73107.47;5138021;27;20268;-79
2023/10/07 01:53:56;;;;;;;14.73;7.23;;;;;;;-143.21;66.85;73111.44;5133274;27;20200;-79
2023/10/07 01:56:26;;;;;;;10.63;7.50;;;;;;;-143.21;67.00;73119.38;5133815;27;20290;-78
2023/10/07 01:58:54;;;;;;;13.00;6.80;;;;;;;-143.21;66.85;73115.41;5141766;27;20206;-78
2023/10/07 02:01:22;;;;;;;11.83;6.83;;;;;;;-143.21;66.95;73121.34;5133853;27;20207;-78
2023/10/07 02:03:50;;;;;;;11.13;7.00;;;;;;;-143.21;66.92;73121.34;5144821;27;20263;-79
2023/10/07 02:06:18;;;;;;;12.90;7.70;;;;;;;-143.21;67.08;73121.34;5139958;27;20211;-79
2023/10/07 02:08:46;;;;;;;13.20;7.27;;;;;;;-143.21;67.32;73125.31;5141164;27;20203;-78
2023/10/07 02:11:18;;;;;;;13.23;6.73;;;;;;;-143.21;67.26;73121.34;5136792;27;20721;-79
2023/10/07 02:13:46;;;;;;;11.77;7.13;;;;;;;-143.21;67.16;73123.34;5146622;27;20211;-79
2023/10/07 02:16:16;;;;;;;16.90;6.93;;;;;;;-143.21;67.33;73125.31;5137217;27;20681;-79
2023/10/07 02:18:44;;;;;;;10.37;6.93;;;;;;;-143.21;67.22;73125.31;5136890;27;20746;-79
2023/10/07 02:21:11;;;;;;;11.00;6.27;;;;;;;-143.21;67.27;73129.28;5140223;27;20218;-79
2023/10/07 02:23:40;;;;;;;11.70;6.93;;;;;;;-143.21;67.02;73119.38;5135899;27;20202;-79
2023/10/07 02:26:14;;;;;;;10.53;6.87;;;;;;;-143.21;67.25;73129.28;5140306;27;20251;-79
2023/10/07 02:28:43;;;;;;;12.47;7.13;;;;;;;-143.21;67.32;73125.31;5139662;27;20203;-80
2023/10/07 02:31:15;;;;;;;13.23;7.00;;;;;;;-143.21;67.42;73139.22;5134135;27;20219;-80
2023/10/07 02:33:45;;;;;;;17.43;6.90;;;;;;;-143.21;67.85;73147.13;5139074;27;20288;-81
2023/10/07 02:36:21;;;;;;;13.57;7.47;;;;;;;-143.21;68.13;73161.03;5135433;27;20215;-80
2023/10/07 02:38:52;;;;;;;13.37;6.93;;;;;;;-143.21;68.16;73157.06;5136036;27;20317;-81
2023/10/07 02:41:20;;;;;;;13.37;7.57;;;;;;;-143.21;67.79;73153.09;5140662;27;20196;-80
2023/10/07 02:43:49;;;;;;;14.33;7.63;;;;;;;-143.21;67.94;73155.06;5136305;27;20199;-81
2023/10/07 02:46:33;;;;;;;15.27;8.37;;;;;;;-143.21;68.15;73163.00;5139936;27;20373;-79
2023/10/07 02:49:09;;;;;;;13.40;7.70;;;;;;;-143.21;68.32;73165.00;5133733;27;20198;-79
2023/10/07 02:51:39;;;;;;;15.63;8.03;;;;;;;-143.21;67.61;73149.13;5137507;27;20644;-79
2023/10/07 02:54:15;;;;;;;13.43;8.27;;;;;;;-143.21;67.92;73163.00;5133036;27;20709;-80
2023/10/07 02:56:54;;;;;;;16.60;9.57;;;;;;;-143.21;67.97;73170.94;5140243;27;20206;-80
2023/10/07 02:59:33;;;;;;;22.43;10.40;;;;;;;-143.21;67.98;73170.94;5137174;27;20199;-80
2023/10/07 03:04:42;;;;;;;20.53;11.50;;;;;;;-143.21;68.75;73192.75;5127357;27;20206;-80
2023/10/07 03:07:14;;;;;;;17.80;11.30;;;;;;;-143.21;68.58;73186.81;5139230;27;20568;-80
2023/10/07 03:09:45;;;;;;;19.60;12.03;;;;;;;-143.21;68.42;73188.78;5143408;27;20259;-80
2023/10/07 03:12:13;;;;;;;21.47;11.90;;;;;;;-143.21;68.31;73182.84;5131365;27;20249;-80
2023/10/07 03:14:43;;;;;;;23.67;12.63;;;;;;;-143.21;68.23;73186.81;5133502;27;20202;-81
2023/10/07 03:17:18;;;;;;;23.13;12.17;;;;;;;-143.21;67.89;73188.78;5144930;27;20231;-80
2023/10/07 03:19:53;;;;;;;22.73;13.40;;;;;;;-143.21;68.05;73188.78;5139841;27;21527;-80
2023/10/07 03:22:28;;;;;;;27.90;13.43;;;;;;;-143.21;68.27;73198.72;5134855;27;20190;-78
2023/10/07 03:24:59;;;;;;;25.53;13.17;;;;;;;-143.21;68.39;73204.66;5147042;27;20217;-78
2023/10/07 03:27:26;;;;;;;26.90;13.30;;;;;;;-143.21;68.58;73206.66;5131965;27;20192;-79
2023/10/07 03:30:12;;;;;;;21.90;13.43;;;;;;;-143.21;68.45;73208.63;5141918;27;20251;-77
2023/10/07 03:32:54;;;;;;;24.23;13.40;;;;;;;-143.21;68.40;73206.66;5139430;27;20246;-77
2023/10/07 03:35:35;;;;;;;26.13;13.27;;;;;;;-143.21;68.09;73202.69;5138960;27;20195;-77
2023/10/07 03:38:08;;;;;;;26.13;13.00;;;;;;;-143.21;68.58;73208.63;5131459;27;20291;-77
2023/10/07 03:40:38;;;;;;;24.20;13.43;;;;;;;-143.21;68.51;73214.59;5138887;27;20657;-76
2023/10/07 03:43:08;;;;;;;25.93;12.13;;;;;;;-143.21;68.63;73224.50;5134567;27;20318;-76
2023/10/07 03:45:39;;;;;;;22.53;11.80;;;;;;;-143.21;68.82;73236.41;5138808;27;20241;-79
2023/10/07 03:48:22;;;;;;;21.47;11.77;;;;;;;-143.21;69.19;73240.38;5145850;27;20205;-79
2023/10/07 03:50:59;;;;;;;21.83;11.00;;;;;;;-143.21;69.20;73232.44;5137317;27;20205;-79
2023/10/07 03:53:31;;;;;;;21.93;10.77;;;;;;;-143.21;68.94;73228.47;5138745;27;20196;-78
2023/10/07 03:55:59;;;;;;;23.93;11.70;;;;;;;-143.21;69.02;73232.44;5134228;27;20230;-79
2023/10/07 03:58:27;;;;;;;19.03;11.20;;;;;;;-143.21;68.57;73240.38;5140861;27;20660;-79
2023/10/07 04:00:56;;;;;;;16.23;10.17;;;;;;;-143.21;68.61;73248.31;5130955;27;20220;-79
2023/10/07 04:03:24;;;;;;;15.33;9.47;;;;;;;-143.21;69.16;73262.19;5135430;27;20200;-79
2023/10/07 04:05:51;;;;;;;17.27;9.80;;;;;;;-143.21;69.55;73266.16;5127910;27;20203;-79
2023/10/07 04:08:19;;;;;;;16.60;9.33;;;;;;;-143.21;69.66;73270.13;5137676;27;20664;-79
2023/10/07 04:10:47;;;;;;;15.63;9.47;;;;;;;-143.21;69.39;73268.16;5138598;27;20203;-79
2023/10/07 04:13:22;;;;;;;16.90;8.83;;;;;;;-143.21;69.31;73272.13;5134585;27;20223;-78
2023/10/07 04:15:53;;;;;;;16.23;10.00;;;;;;;-143.21;69.68;73286.00;5140603;27;20199;-79
2023/10/07 04:18:34;;;;;;;19.90;10.07;;;;;;;-143.21;69.18;73284.00;5141112;27;20199;-79
2023/10/07 04:21:01;;;;;;;19.73;10.53;;;;;;;-143.21;69.45;73282.03;5135428;27;20267;-79
2023/10/07 04:23:28;;;;;;;23.13;10.07;;;;;;;-143.21;69.32;73274.09;5132239;27;20294;-79
2023/10/07 04:26:08;;;;;;;19.80;9.80;;;;;;;-143.21;69.09;73278.06;5137038;27;20195;-79
2023/10/07 04:28:35;;;;;;;19.10;9.77;;;;;;;-143.21;68.90;73274.09;5135655;27;20205;-79
2023/10/07 04:31:09;;;;;;;18.53;10.80;;;;;;;-143.21;69.13;73278.06;5137924;27;20207;-79
2023/10/07 04:33:47;;;;;;;20.10;10.73;;;;;;;-143.21;69.49;73282.03;5131992;27;20223;-81
2023/10/07 04:36:18;;;;;;;21.27;11.17;;;;;;;-143.21;69.51;73280.03;5136523;27;20202;-81
2023/10/07 04:38:53;;;;;;;23.07;11.13;;;;;;;-143.21;69.71;73291.94;5130806;27;20203;-80
2023/10/07 04:41:33;;;;;;;17.47;10.20;;;;;;;-143.21;70.21;73295.91;5134349;27;20198;-81
2023/10/07 04:43:59;;;;;;;18.83;10.37;;;;;;;-143.21;70.27;73293.94;5136000;27;20563;-80
2023/10/07 04:46:28;;;;;;;19.87;10.33;;;;;;;-143.21;70.04;73287.97;5132886;27;20195;-81
2023/10/07 04:48:57;;;;;;;19.73;10.63;;;;;;;-143.21;70.12;73286.00;5134112;27;20203;-80
2023/10/07 04:51:46;;;;;;;27.40;12.97;;;;;;;-143.21;69.91;73284.00;5130056;27;20226;-80
2023/10/07 04:54:20;;;;;;;30.23;14.53;;;;;;;-143.21;69.96;73284.00;5136428;27;20213;-80
2023/10/07 04:56:48;;;;;;;29.60;13.67;;;;;;;-143.21;69.40;73278.06;5133778;27;20199;-79
2023/10/07 04:59:17;;;;;;;28.97;13.87;;;;;;;-143.21;69.26;73282.03;5140015;27;20260;-80
2023/10/07 05:01:48;;;;;;;31.80;13.43;;;;;;;-143.21;69.87;73291.94;5144622;27;20243;-80
2023/10/07 05:04:16;;;;;;;30.10;13.60;;;;;;;-143.21;69.49;73287.97;5133355;27;20231;-80
2023/10/07 05:06:43;;;;;;;29.20;14.13;;;;;;;-143.21;69.47;73287.97;5132134;27;20203;-79
2023/10/07 05:09:10;;;;;;;45.20;14.13;;;;;;;-143.21;69.59;73299.88;5137821;27;20206;-79
2023/10/07 05:11:38;;;;;;;32.33;14.10;;;;;;;-143.21;69.85;73295.91;5129173;27;20298;-78
2023/10/07 05:14:07;;;;;;;36.90;13.33;;;;;;;-143.21;69.68;73289.97;5131342;27;20188;-78
2023/10/07 05:16:34;;;;;;;21.20;11.20;;;;;;;-143.21;69.49;73289.97;5131215;27;20207;-78
2023/10/07 05:19:02;;;;;;;26.00;12.83;;;;;;;-143.21;69.41;73282.03;5133383;27;20207;-78
2023/10/07 05:21:33;;;;;;;24.63;12.47;;;;;;;-143.21;69.30;73289.97;5131472;27;20191;-79
2023/10/07 05:24:04;;;;;;;23.47;11.43;;;;;;;-143.21;69.84;73293.94;5129724;27;20212;-79
2023/10/07 05:26:31;;;;;;;23.43;10.30;;;;;;;-143.21;70.05;73297.91;5127321;27;20559;-80
2023/10/07 05:29:01;;;;;;;27.90;10.27;;;;;;;-143.21;69.95;73289.97;5131900;27;20696;-79
2023/10/07 05:31:30;;;;;;;28.80;11.53;;;;;;;-143.21;70.22;73295.91;5136639;27;20662;-79
2023/10/07 05:33:59;;;;;;;14.40;8.40;;;;;;;-143.21;70.01;73282.03;5140443;27;20207;-80
2023/10/07 05:36:29;;;;;;;14.63;7.97;;;;;;;-143.21;69.79;73280.03;5134405;27;20733;-79
2023/10/07 05:39:00;;;;;;;13.37;7.23;;;;;;;-143.21;69.90;73280.03;5133817;27;20183;-77
2023/10/07 05:41:28;;;;;;;16.40;7.23;;;;;;;-143.21;69.97;73280.03;5131539;27;20210;-79
2023/10/07 05:43:55;;;;;;;13.17;7.90;;;;;;;-143.21;69.69;73278.06;5137474;27;20738;-78
2023/10/07 05:46:22;;;;;;;14.77;7.47;;;;;;;-143.21;69.48;73270.13;5137432;27;20210;-78
2023/10/07 05:48:51;;;;;;;17.40;7.83;;;;;;;-143.21;69.40;73270.13;5137452;27;20199;-79
2023/10/07 05:51:18;;;;;;;14.40;7.97;;;;;;;-143.21;69.00;73266.16;5141662;27;20238;-79
2023/10/07 05:53:48;;;;;;;15.77;8.27;;;;;;;-143.21;68.34;73258.22;5143178;27;20303;-80
2023/10/07 05:56:16;;;;;;;16.10;8.97;;;;;;;-143.21;68.61;73256.25;5137393;27;20276;-79
2023/10/07 05:58:44;;;;;;;15.17;9.10;;;;;;;-143.21;68.40;73254.25;5140175;27;20211;-79
2023/10/07 06:01:13;;;;;;;21.07;8.73;;;;;;;-143.21;68.25;73254.25;5135618;27;20205;-79
2023/10/07 06:03:40;;;;;;;17.33;8.53;;;;;;;-143.21;68.56;73254.25;5137892;27;20231;-79
2023/10/07 06:06:07;;;;;;;20.30;9.10;;;;;;;-143.21;68.09;73252.28;5136271;27;20202;-78
2023/10/07 06:08:34;;;;;;;18.47;8.43;;;;;;;-143.21;68.05;73242.34;5137679;27;20203;-78
2023/10/07 06:11:04;;;;;;;20.27;9.37;;;;;;;-143.21;68.15;73248.31;5134917;27;20202;-78
2023/10/07 06:13:37;;;;;;;17.63;9.10;;;;;;;-143.21;68.05;73232.44;5137921;27;20284;-77
2023/10/07 06:16:07;;;;;;;20.70;9.37;;;;;;;-143.21;67.51;73212.59;5134602;27;20199;-79
2023/10/07 06:18:34;;;;;;;19.30;9.47;;;;;;;-143.21;67.48;73212.59;5134164;27;20199;-79
2023/10/07 06:21:19;;;;;;;20.50;9.87;;;;;;;-143.21;67.86;73216.56;5149807;27;20203;-78
2023/10/07 06:23:48;;;;;;;22.23;10.27;;;;;;;-143.21;67.60;73210.63;5138208;27;20203;-89
2023/10/07 06:26:30;;;;;;;21.63;10.03;;;;;;;-143.21;67.49;73208.63;5141851;27;20211;-81
2023/10/07 06:29:05;;;;;;;21.43;10.30;;;;;;;-143.21;67.27;73196.72;5129312;27;20279;-81
2023/10/07 06:31:32;;;;;;;21.60;10.53;;;;;;;-143.21;66.93;73188.78;5139533;27;20393;-81
2023/10/07 06:34:12;;;;;;;20.87;10.53;;;;;;;-143.21;66.69;73190.78;5131957;27;20223;-82
2023/10/07 06:36:44;;;;;;;30.87;10.60;;;;;;;-143.21;66.85;73184.84;5135123;27;20202;-82
2023/10/07 06:42:06;;;;;;;22.43;10.57;;;;;;;-143.21;66.84;73176.91;5108684;27;20287;-80
2023/10/07 06:45:17;;;;;;;17.83;10.03;;;;;;;-143.21;66.69;73174.91;5132225;27;20207;-81
2023/10/07 06:47:51;;;;;;;21.03;10.57;;;;;;;-143.21;66.72;73166.97;5133249;27;20221;-79
2023/10/07 06:50:27;;;;;;;19.60;10.03;;;;;;;-143.21;66.73;73163.00;5131968;27;20210;-80
2023/10/07 06:52:55;;;;;;;20.17;11.00;;;;;;;-143.21;66.61;73153.09;5130698;27;20322;-79
2023/10/07 06:55:22;;;;;;;22.77;11.40;;;;;;;-143.21;66.47;73151.09;5127392;27;20200;-79
2023/10/07 06:57:56;;;;;;;19.13;9.50;;;;;;;-143.21;66.48;73147.13;5129508;27;20202;-76
2023/10/07 07:00:47;;;;;;;18.37;9.90;;;;;;;-143.21;66.31;73143.16;5133936;27;20274;-78
2023/10/07 07:03:14;;;;;;;16.27;9.67;;;;;;;-143.21;66.19;73131.28;5126428;27;20252;-76
2023/10/07 07:05:41;;;;;;;15.43;10.00;;;;;;;-143.21;65.57;73125.31;5134171;27;20742;-75
2023/10/07 07:08:13;;;;;;;22.23;9.63;;;;;;;-143.21;65.48;73109.44;5135175;27;20223;-81
2023/10/07 07:10:40;;;;;;;19.10;10.43;;;;;;;-143.21;65.33;73097.56;5131278;27;20195;-83
2023/10/07 07:13:13;;;;;;;20.00;11.07;;;;;;;-143.21;65.52;73095.56;5132270;27;20242;-81
2023/10/07 07:15:43;;;;;;;22.30;10.43;;;;;;;-143.21;65.30;73081.69;5132977;27;20219;-82
2023/10/07 07:18:16;;;;;;;18.87;10.60;;;;;;;-143.21;65.30;73073.75;5132429;27;20286;-82
2023/10/07 07:21:00;;;;;;;17.10;10.30;;;;;;;-143.21;64.83;73063.84;5130272;27;20222;-83
2023/10/07 07:23:35;;;;;;;17.80;9.97;;;;;;;-143.21;64.51;73051.94;5139913;27;20187;-82
2023/10/07 07:26:06;;;;;;;23.17;10.40;;;;;;;-143.21;63.46;73042.00;5132030;27;20191;-81
2023/10/07 07:28:34;;;;;;;20.47;10.70;;;;;;;-143.21;63.36;73030.09;5138228;27;20199;-82
2023/10/07 07:31:26;;;;;;;17.90;10.13;;;;;;;-143.21;63.25;73022.19;5133901;27;20202;-83
2023/10/07 07:33:52;;;;;;;15.60;10.03;;;;;;;-143.21;63.32;73018.22;5140117;27;20251;-81
2023/10/07 07:36:37;;;;;;;22.83;11.30;;;;;;;-143.21;63.41;73006.31;5134586;27;20203;-82
2023/10/07 07:39:22;;;;;;;27.20;11.00;;;;;;;-143.21;63.40;73004.31;5129503;27;20920;-80
2023/10/07 07:44:37;;;;;;;18.67;12.63;;;;;;;-143.21;63.34;72984.50;5040933;28;20221;-79
2023/10/07 07:47:05;;;;;;;18.87;11.83;;;;;;;-143.21;63.26;72972.59;5138948;27;20206;-80
2023/10/07 07:49:33;;;;;;;17.33;11.10;;;;;;;-143.21;62.95;72964.66;5133753;27;20666;-79
2023/10/07 07:52:01;;;;;;;20.30;11.40;;;;;;;-143.21;62.69;72956.72;5126881;27;20233;-78
2023/10/07 07:54:34;;;;;;;20.23;11.50;;;;;;;-143.21;62.52;72946.81;5130011;27;20279;-79
2023/10/07 07:57:04;;;;;;;29.97;11.83;;;;;;;-143.21;61.81;72926.97;5132760;27;20586;-78
2023/10/07 07:59:32;;;;;;;23.87;11.93;;;;;;;-143.21;61.46;72919.03;5129232;27;21024;-78
2023/10/07 08:02:10;;;;;;;22.90;11.57;;;;;;;-143.21;61.65;72913.09;5134637;27;20256;-78
2023/10/07 08:04:46;;;;;;;20.53;13.40;;;;;;;-143.21;61.43;72907.13;5130707;27;20187;-79
2023/10/07 08:07:19;;;;;;;24.90;12.03;;;;;;;-143.21;61.25;72893.25;5131562;27;20211;-79
2023/10/07 08:09:50;;;;;;;27.73;11.97;;;;;;;-143.21;61.36;72879.38;5129845;27;20203;-80
2023/10/07 08:12:19;;;;;;;25.43;11.67;;;;;;;-143.21;60.76;72871.44;5135888;27;20191;-80
2023/10/07 08:14:46;;;;;;;24.37;11.53;;;;;;;-143.21;60.42;72847.63;5133231;27;20291;-80
2023/10/07 08:17:19;;;;;;;21.30;11.37;;;;;;;-143.21;59.72;72829.78;5132405;27;20210;-79
2023/10/07 08:19:50;;;;;;;21.70;11.53;;;;;;;-143.21;59.30;72807.97;5109471;27;21032;-80
2023/10/07 08:22:19;;;;;;;20.63;11.73;;;;;;;-143.21;59.47;72798.03;5136312;27;20198;-80
2023/10/07 08:24:46;;;;;;;21.30;10.73;;;;;;;-143.21;59.18;72782.16;5135228;27;20199;-80
2023/10/07 08:27:43;;;;;;;26.57;12.30;;;;;;;-143.21;58.60;72764.31;5129705;27;20339;-83
2023/10/07 08:30:09;;;;;;;20.60;11.23;;;;;;;-143.21;58.23;72744.50;5135083;27;20203;-83
2023/10/07 08:32:41;;;;;;;19.23;11.93;;;;;;;-143.21;57.88;72716.72;5134032;27;20949;-83
2023/10/07 08:35:18;;;;;;;27.70;12.67;;;;;;;-143.21;57.17;72690.94;5130559;27;20214;-84
2023/10/07 08:37:50;;;;;;;22.07;11.73;;;;;;;-143.21;56.53;72665.16;5131816;27;20286;-87
2023/10/07 08:40:26;;;;;;;22.77;12.03;;;;;;;-143.21;55.87;72639.38;5131818;27;20195;-86
2023/10/07 08:42:57;;;;;;;24.30;12.00;;;;;;;-143.21;55.74;72615.56;5128784;27;20677;-86
2023/10/07 08:45:28;;;;;;;22.70;11.07;;;;;;;-143.21;54.88;72593.75;5128635;27;20206;-86
2023/10/07 08:48:08;;;;;;;25.13;10.77;;;;;;;-143.21;54.79;72579.88;5134606;27;20233;-82
2023/10/07 08:50:43;;;;;;;18.00;10.57;;;;;;;-143.21;54.39;72540.19;5133054;27;20199;-82
2023/10/07 08:53:11;;;;;;;18.20;11.30;;;;;;;-143.21;53.44;72494.59;5090338;28;20222;-82
2023/10/07 08:55:42;;;;;;;17.00;10.52;;;;;;;-143.21;52.61;72443.03;5090323;28;20200;-85
2023/10/07 08:58:11;;;;;;;18.08;10.30;;;;;;;-143.21;51.81;72401.38;5094192;28;20598;-84
2023/10/07 09:00:45;;;;;;;20.13;10.27;;;;;;;-143.21;50.83;72359.72;5090757;28;20204;-85
2023/10/07 09:03:15;;;;;;;15.25;9.57;;;;;;;-143.21;49.85;72320.06;5091199;28;20234;-82
2023/10/07 09:05:43;;;;;;;23.63;9.40;;;;;;;-143.21;48.85;72270.50;5097346;28;20240;-82
2023/10/07 09:08:11;;;;;;;14.20;9.38;;;;;;;-143.21;47.83;72226.84;5108722;28;20204;-77
2023/10/07 09:10:40;;;;;;;19.63;8.70;;;;;;;-143.21;46.26;72203.06;5100932;28;20203;-77
2023/10/07 09:13:19;;;;;;;24.58;9.07;;;;;;;-143.21;45.73;72169.34;5096856;28;20755;-77
2023/10/07 09:15:52;;;;;;;14.63;8.50;;;;;;;-143.21;44.96;72145.56;5105345;28;20212;-76
2023/10/07 09:18:28;;;;;;;11.75;8.70;;;;;;;-143.21;44.62;72117.78;5102293;28;20204;-77
2023/10/07 09:20:56;;;;;;;21.63;9.68;;;;;;;-143.21;43.74;72094.00;5104635;28;20204;-77
2023/10/07 09:23:34;;;;;;;15.02;7.95;;;;;;;-143.21;43.15;72074.16;5107008;28;20211;-77
2023/10/07 09:26:16;;;;;;;11.68;6.28;;;;;;;-143.21;41.91;72064.25;5102078;28;20206;-77
2023/10/07 09:28:46;;;;;;;15.32;7.15;;;;;;;-143.21;41.12;72046.41;5105134;28;20200;-76
2023/10/07 09:31:15;;;;;;;12.77;6.78;;;;;;;-143.21;41.41;72002.78;5103574;28;20235;-77
2023/10/07 09:33:45;;;;;;;16.90;6.90;;;;;;;-143.21;40.75;71959.16;5096675;28;20248;-78
2023/10/07 09:39:13;;;;;;;13.05;7.50;;;;;;;-143.21;38.84;71931.38;5093748;28;20210;-76
2023/10/07 09:41:43;;;;;;;13.38;6.78;;;;;;;-143.21;39.04;71935.34;5104034;28;20258;-76
2023/10/07 09:44:23;;;;;;;12.10;6.38;;;;;;;-143.21;38.92;71893.72;5097835;28;20695;-77
2023/10/07 09:46:52;;;;;;;10.40;6.00;;;;;;;-143.21;37.75;71856.03;5102058;28;20196;-76
2023/10/07 09:49:20;;;;;;;11.25;6.30;;;;;;;-143.21;37.47;71828.28;5101801;28;20200;-76
2023/10/07 09:51:50;;;;;;;11.73;6.63;;;;;;;-143.21;36.90;71816.38;5115788;27;20274;-76
2023/10/07 09:54:36;;;;;;;15.75;6.18;;;;;;;-143.21;37.25;71804.47;5138520;27;20299;-77
2023/10/07 09:57:20;;;;;;;15.55;7.05;;;;;;;-143.21;36.48;71760.88;5134840;27;20234;-77
2023/10/07 10:03:20;;;;;;;10.85;6.32;;;;;;;-143.21;35.60;71653.78;5132989;27;20600;-76
2023/10/07 10:06:03;;;;;;;10.57;5.93;;;;;;;-143.21;35.89;71600.25;5139068;27;20210;-77
2023/10/07 10:08:56;;;;;;;14.70;6.60;;;;;;;-143.21;35.37;71606.22;5144143;27;20202;-77
2023/10/07 10:11:31;;;;;;;11.50;6.10;;;;;;;-143.21;34.73;71576.47;5136644;27;20195;-81
2023/10/07 10:14:16;;;;;;;9.52;6.00;;;;;;;-143.21;34.75;71544.75;5136926;27;20282;-81
2023/10/07 10:16:45;;;;;;;17.38;6.18;;;;;;;-143.21;34.49;71542.75;5140550;27;20197;-81
2023/10/07 10:19:18;;;;;;;12.93;5.38;;;;;;;-143.21;34.34;71501.13;5135817;27;20210;-81
2023/10/07 10:21:44;;;;;;;17.60;6.60;;;;;;;-143.21;33.90;71479.31;5135264;27;20222;-81
2023/10/07 10:24:15;;;;;;;15.00;6.15;;;;;;;-143.21;34.01;71435.69;5134008;27;20203;-81
2023/10/07 10:26:44;;;;;;;17.52;7.82;;;;;;;-143.21;33.09;71384.16;5143473;27;20260;-80
2023/10/07 10:29:16;;;;;;;14.98;7.10;;;;;;;-143.21;32.53;71360.34;5138842;27;20270;-81
2023/10/07 10:31:51;;;;;;;17.88;6.47;;;;;;;-143.21;32.85;71328.63;5140565;27;20298;-81
2023/10/07 10:34:20;;;;;;;14.75;6.43;;;;;;;-143.21;32.01;71277.09;5143075;27;20257;-81
2023/10/07 10:36:49;;;;;;;21.38;6.35;;;;;;;-143.21;31.71;71251.31;5132588;27;20207;-82
2023/10/07 10:39:22;;;;;;;12.90;6.00;;;;;;;-143.21;31.20;71205.72;5136527;27;20291;-81
2023/10/07 10:41:50;;;;;;;10.23;5.40;;;;;;;-143.21;30.78;71168.06;5136662;27;20227;-81
2023/10/07 10:44:17;;;;;;;8.35;5.70;;;;;;;-143.21;30.54;71152.19;5132789;27;20282;-81
2023/10/07 10:46:46;;;;;;;9.60;5.65;;;;;;;-143.21;30.99;71118.50;5142585;27;20211;-81
2023/10/07 10:49:15;;;;;;;11.40;5.57;;;;;;;-143.21;30.21;71057.03;5135006;27;20665;-80
2023/10/07 10:51:45;;;;;;;11.75;5.30;;;;;;;-143.21;29.54;71003.50;5135182;27;20231;-82
2023/10/07 10:54:21;;;;;;;10.68;5.82;;;;;;;-143.21;29.29;70983.69;5136470;27;20303;-82
2023/10/07 10:56:49;;;;;;;9.55;5.40;;;;;;;-143.21;29.12;70953.94;5132520;27;20700;-81
2023/10/07 10:59:19;;;;;;;11.80;5.53;;;;;;;-143.21;28.62;70932.13;5139011;27;20225;-82
2023/10/07 11:01:49;;;;;;;9.27;5.05;;;;;;;-143.21;28.44;70912.31;5131731;27;20987;-81
2023/10/07 11:04:22;;;;;;;12.88;5.15;;;;;;;-143.21;28.28;70918.25;5131269;27;20199;-81
2023/10/07 11:06:52;;;;;;;15.15;5.00;;;;;;;-143.21;28.86;70920.25;5133094;27;20634;-83
2023/10/07 11:09:26;;;;;;;12.73;5.03;;;;;;;-143.21;28.45;70894.47;5138373;27;20209;-82
2023/10/07 11:11:55;;;;;;;12.88;4.80;;;;;;;-143.21;28.04;70868.72;5132186;27;20227;-82
2023/10/07 11:14:23;;;;;;;15.68;4.97;;;;;;;-143.21;28.00;70856.81;5132248;27;20225;-81
2023/10/07 11:16:52;;;;;;;8.07;5.00;;;;;;;-143.21;27.90;70844.91;5135006;27;20202;-81
2023/10/07 11:19:19;;;;;;;8.27;4.75;;;;;;;-143.21;27.80;70827.06;5135698;27;20202;-81
2023/10/07 11:21:48;;;;;;;7.63;4.63;;;;;;;-143.21;27.50;70795.38;5139443;27;20207;-80
2023/10/07 11:24:25;;;;;;;9.57;5.00;;;;;;;-143.21;27.32;70753.72;5130680;27;20207;-82
2023/10/07 11:26:56;;;;;;;14.30;5.35;;;;;;;-143.21;26.75;70729.94;5141123;27;20204;-80
2023/10/07 11:29:29;;;;;;;8.45;5.00;;;;;;;-143.21;26.95;70696.25;5138824;27;20662;-81
2023/10/07 11:32:00;;;;;;;11.95;5.10;;;;;;;-143.21;26.70;70678.41;5132661;27;20730;-81
2023/10/07 11:34:36;;;;;;;9.00;4.65;;;;;;;-143.21;26.30;70660.56;5129910;27;20223;-80
2023/10/07 11:37:09;;;;;;;7.38;4.53;;;;;;;-143.21;26.42;70708.16;5132753;27;20267;-83
2023/10/07 11:39:44;;;;;;;10.57;5.13;;;;;;;-143.21;26.90;70686.34;5132449;27;20259;-80
2023/10/07 11:42:16;;;;;;;11.80;4.68;;;;;;;-143.21;26.55;70664.53;5131710;27;20965;-82
2023/10/07 11:44:46;;;;;;;13.00;5.18;;;;;;;-143.21;26.20;70646.69;5134813;27;20633;-81